createdAt,value
2022-09-23T00:00:29.063Z,-0.023
2022-09-23T00:05:41.080Z,-0.005
2022-09-23T00:10:52.816Z,-0.003
2022-09-23T00:16:04.715Z,-0.002
2022-09-23T00:21:16.532Z,0
2022-09-23T00:26:28.317Z,0
2022-09-23T00:31:40.098Z,0.004
2022-09-23T00:36:51.828Z,0.008
2022-09-23T00:42:03.556Z,-0.024
2022-09-23T00:47:15.223Z,-0.01
2022-09-23T00:52:26.830Z,-0.007
2022-09-23T00:57:38.574Z,-0.009
2022-09-23T01:02:50.529Z,-0.011
2022-09-23T01:08:02.658Z,-0.008
2022-09-23T01:13:14.485Z,-0.001
2022-09-23T01:18:26.265Z,0.006
2022-09-23T01:23:37.934Z,0
2022-09-23T01:28:49.882Z,0.008
2022-09-23T01:34:01.626Z,0.014
2022-09-23T01:39:13.312Z,0.006
2022-09-23T01:44:25.112Z,-0.008
2022-09-23T01:49:36.955Z,0
2022-09-23T01:54:48.872Z,-0.014
2022-09-23T02:00:00.930Z,-0.036
2022-09-23T02:05:12.662Z,0.019
2022-09-23T02:10:24.264Z,0.006
2022-09-23T02:15:36.092Z,-0.012
2022-09-23T02:20:47.811Z,-0.006
2022-09-23T02:25:59.298Z,-0.02
2022-09-23T02:31:11.114Z,0.004
2022-09-23T02:36:22.869Z,-0.006
2022-09-23T02:41:34.621Z,-0.013
2022-09-23T02:46:46.324Z,-0.017
2022-09-23T02:51:57.963Z,-0.024
2022-09-23T02:57:09.618Z,-0.023
2022-09-23T03:02:21.388Z,-0.024
2022-09-23T03:07:33.160Z,-0.006
2022-09-23T03:12:44.851Z,-0.022
2022-09-23T03:17:56.556Z,-0.023
2022-09-23T03:23:08.114Z,0.001
2022-09-23T03:28:19.726Z,-0.001
2022-09-23T03:33:31.547Z,-0.003
2022-09-23T03:38:43.292Z,-0.002
2022-09-23T03:43:55.016Z,-0.038
2022-09-23T03:49:06.773Z,0.025
2022-09-23T03:54:18.432Z,0.003
2022-09-23T03:59:29.981Z,0.016
2022-09-23T04:04:41.805Z,0.002
2022-09-23T04:09:53.401Z,-0.007
2022-09-23T04:15:05.236Z,0.034
2022-09-23T04:20:17.100Z,0.02
2022-09-23T04:25:28.995Z,-0.022
2022-09-23T04:30:40.682Z,0.018
2022-09-23T04:35:52.529Z,0.012
2022-09-23T04:41:04.373Z,0.018
2022-09-23T04:46:16.248Z,0.018
2022-09-23T04:51:28.481Z,-0.004
2022-09-23T04:56:40.224Z,0.01
2022-09-23T05:01:52.131Z,0.011
2022-09-23T05:07:04.208Z,-0.021
2022-09-23T05:12:16.137Z,0.029
2022-09-23T05:17:28.032Z,0.024
2022-09-23T05:22:39.867Z,0.016
2022-09-23T05:27:51.815Z,0.021
2022-09-23T05:33:03.592Z,0.016
2022-09-23T05:38:15.566Z,0.022
2022-09-23T05:43:27.344Z,0.025
2022-09-23T05:48:39.316Z,0.02
2022-09-23T05:53:51.502Z,0.02
2022-09-23T05:59:03.346Z,0.022
2022-09-23T06:04:15.492Z,0.02
2022-09-23T06:09:27.402Z,0.036
2022-09-23T06:14:45.660Z,0.004
2022-09-23T06:19:57.632Z,0.019
2022-09-23T06:25:09.571Z,-0.008
2022-09-23T06:30:21.436Z,0.025
2022-09-23T06:35:33.291Z,0.025
2022-09-23T06:40:45.135Z,0.04
2022-09-23T06:45:57.217Z,0.004
2022-09-23T06:51:09.171Z,0.052
2022-09-23T06:56:21.320Z,0.044
2022-09-23T07:01:33.485Z,0.014
2022-09-23T07:06:45.976Z,0.042
2022-09-23T07:11:58.001Z,0.033
2022-09-23T07:17:10.039Z,0.043
2022-09-23T07:22:22.099Z,0.026
2022-09-23T07:27:34.276Z,0.045
2022-09-23T07:32:48.819Z,0.051
2022-09-23T07:38:00.637Z,0.007
2022-09-23T07:43:12.873Z,0.066
2022-09-23T07:48:25.014Z,0.04
2022-09-23T07:53:36.980Z,0.03
2022-09-23T07:58:49.242Z,0.054
2022-09-23T08:04:01.403Z,0.037
2022-09-23T08:09:13.539Z,0.053
2022-09-23T08:14:25.697Z,0.045
2022-09-23T08:19:37.738Z,0.053
2022-09-23T08:24:50.583Z,0.03
2022-09-23T08:30:10.047Z,0.058
2022-09-23T08:35:22.208Z,0.036
2022-09-23T08:40:34.406Z,0.035
2022-09-23T08:45:46.792Z,0.033
2022-09-23T08:50:58.709Z,0.048
2022-09-23T08:56:10.790Z,0.026
2022-09-23T09:01:22.864Z,0.04
2022-09-23T09:06:41.930Z,0.031
2022-09-23T09:12:41.977Z,0.045
2022-09-23T09:17:53.944Z,0.057
2022-09-23T09:23:05.905Z,0.045
2022-09-23T09:28:18.060Z,0.008
2022-09-23T09:33:36.205Z,0.014
2022-09-23T09:38:48.264Z,0.037
2022-09-23T09:44:00.513Z,0.038
2022-09-23T09:49:12.812Z,0.013
2022-09-23T09:54:24.817Z,-0.003
2022-09-23T09:59:37.033Z,0.038
2022-09-23T10:04:49.339Z,0.028
2022-09-23T10:10:15.882Z,0.023
2022-09-23T10:15:44.432Z,0.021
2022-09-23T10:26:17.068Z,0.035
2022-09-23T10:31:29.306Z,0.018
2022-09-23T10:36:44.507Z,0.03
2022-09-23T10:41:56.042Z,0.027
2022-09-23T10:47:08.403Z,0.026
2022-09-23T10:52:20.631Z,0.049
2022-09-23T10:57:32.625Z,0.019
2022-09-23T11:02:45.406Z,0.07
2022-09-23T11:07:58.126Z,0.072
2022-09-23T11:13:12.226Z,0.14
2022-09-23T11:18:26.589Z,0.541
2022-09-23T11:23:41.532Z,0.543
2022-09-23T11:28:56.479Z,0.235
2022-09-23T11:34:10.447Z,0.055
2022-09-23T11:39:23.842Z,-0.018
2022-09-23T11:44:36.932Z,0.126
2022-09-23T11:49:50.029Z,0.224
2022-09-23T11:55:09.278Z,0.06
2022-09-23T12:00:32.780Z,0.018
2022-09-23T12:05:45.427Z,-0.003
2022-09-23T12:16:09.874Z,-0.047
2022-09-23T12:21:46.153Z,-0.012
2022-09-23T12:37:18.954Z,0.318
2022-09-23T12:42:32.358Z,0.212
2022-09-23T12:47:45.348Z,0.044
2022-09-23T12:52:58.913Z,0.077
2022-09-23T12:58:12.222Z,0.007
2022-09-23T13:08:35.365Z,-0.009
2022-09-23T13:13:47.982Z,0.052
2022-09-23T13:19:00.190Z,0.157
2022-09-23T13:34:32.185Z,0.014
2022-09-23T13:39:43.871Z,0.183
2022-09-23T13:50:05.487Z,0.019
2022-09-23T13:55:17.463Z,-0.001
2022-09-23T14:00:29.384Z,-0.046
2022-09-23T14:21:11.995Z,0.046
2022-09-23T14:26:24.369Z,-0.036
2022-09-23T14:31:36.702Z,-0.005
2022-09-23T14:41:59.812Z,-0.02
2022-09-23T14:47:12.368Z,-0.008
2022-09-23T14:52:24.539Z,-0.049
2022-09-23T14:57:36.546Z,0.02
2022-09-23T15:02:48.868Z,0.018
2022-09-23T15:08:00.974Z,0.006
2022-09-23T15:13:12.925Z,0.057
2022-09-23T15:18:25.399Z,-0.018
2022-09-23T15:33:57.400Z,-0.049
2022-09-23T15:44:43.805Z,0.012
2022-09-23T15:49:55.835Z,-0.02
2022-09-23T15:55:07.968Z,-0.017
2022-09-23T16:00:19.979Z,0.014
2022-09-23T16:05:32.192Z,0.014
2022-09-23T16:10:44.621Z,0.045
2022-09-23T16:15:56.764Z,-0.033
2022-09-23T16:31:29.680Z,0.011
2022-09-23T16:36:41.995Z,0.002
2022-09-23T16:41:54.260Z,-0.02
2022-09-23T16:47:06.756Z,-0.038
2022-09-23T16:52:18.983Z,-0.015
2022-09-23T17:08:20.915Z,-0.027
2022-09-23T17:13:33.842Z,-0.013
2022-09-23T17:18:46.054Z,-0.024
2022-09-23T17:23:58.071Z,-0.011
2022-09-23T17:34:20.077Z,-0.001
2022-09-23T17:39:31.905Z,-0.038
2022-09-23T17:44:43.935Z,-0.024
2022-09-23T17:55:05.833Z,0
2022-09-23T18:00:17.855Z,-0.011
2022-09-23T18:10:40.152Z,-0.006
2022-09-23T18:15:52.359Z,-0.007
2022-09-23T18:21:04.945Z,-0.009
2022-09-23T18:26:17.378Z,-0.011
2022-09-23T18:31:29.639Z,0.006
2022-09-23T18:36:42.191Z,0.026
2022-09-23T18:41:54.308Z,0.018
2022-09-23T18:47:07.288Z,0.001
2022-09-23T18:52:25.990Z,0.003
2022-09-23T18:57:43.053Z,0
2022-09-23T19:02:58.633Z,0.007
2022-09-23T19:08:12.799Z,-0.001
2022-09-23T19:13:24.944Z,-0.037
2022-09-23T19:18:39.275Z,0.018
2022-09-23T19:23:52.529Z,-0.004
2022-09-23T19:29:05.775Z,-0.021
2022-09-23T19:34:17.805Z,-0.017
2022-09-23T19:39:29.488Z,-0.012
2022-09-23T19:44:41.853Z,-0.008
2022-09-23T19:49:54.340Z,-0.028
2022-09-23T19:55:07.218Z,0.023
2022-09-23T20:00:20.214Z,0.002
2022-09-23T20:05:38.622Z,0.002
2022-09-23T20:10:50.855Z,-0.002
2022-09-23T20:16:03.054Z,-0.015
2022-09-23T20:21:15.183Z,-0.011
2022-09-23T20:26:27.275Z,-0.007
2022-09-23T20:31:39.075Z,-0.006
2022-09-23T20:36:51.397Z,-0.012
2022-09-23T20:42:03.588Z,-0.01
2022-09-23T20:47:15.723Z,-0.014
2022-09-23T20:52:27.667Z,-0.012
2022-09-23T20:57:39.256Z,-0.008
2022-09-23T21:02:51.140Z,-0.017
2022-09-23T21:13:23.850Z,0
2022-09-23T21:18:35.730Z,-0.001
2022-09-23T21:23:47.607Z,-0.015
2022-09-23T21:28:59.095Z,-0.025
2022-09-23T21:34:10.889Z,-0.018
2022-09-23T21:39:22.735Z,0.01
2022-09-23T21:44:34.535Z,0.007
2022-09-23T21:49:50.739Z,-0.006
2022-09-23T21:55:01.723Z,0.002
2022-09-23T22:00:13.613Z,0
2022-09-23T22:05:25.321Z,-0.032
2022-09-23T22:10:37.250Z,0.017
2022-09-23T22:15:49.099Z,0
2022-09-23T22:21:01.218Z,0.006
2022-09-23T22:26:13.175Z,0.001
2022-09-23T22:31:25.009Z,-0.001
2022-09-23T22:36:36.969Z,-0.014
2022-09-23T22:41:48.833Z,-0.017
2022-09-23T22:52:24.803Z,-0.014
2022-09-23T22:57:36.539Z,-0.015
2022-09-23T23:02:48.400Z,-0.02
2022-09-23T23:08:00.937Z,-0.014
2022-09-23T23:13:12.417Z,-0.014
2022-09-23T23:18:25.941Z,-0.021
2022-09-23T23:23:37.905Z,0.001
2022-09-23T23:28:49.516Z,-0.007
2022-09-23T23:34:01.263Z,-0.011
2022-09-23T23:39:13.032Z,-0.002
2022-09-23T23:44:24.910Z,-0.01
2022-09-23T23:49:36.530Z,0.004
2022-09-23T23:54:48.197Z,-0.013
2022-09-23T23:59:59.786Z,-0.015
